Time;durP1;ratioP1;P1;durP2;ratioP2;P2;SDS_P1;SDS_P2;PMS_P1;PMS_P2;Temp;Humidity;BMP_temperature;BMP_pressure;BME280_temperature;BME280_humidity;BME280_pressure;Samples;Min_cycle;Max_cycle;Signal;HPM_P1;HPM_P2
2022/04/14 00:02:07;;;;;;;195.03;27.73;;;;;;;;;;5067408;28;20477;-78
2022/04/14 00:04:36;;;;;;;173.20;19.80;;;;;;;;;;5067436;28;21028;-77
2022/04/14 00:07:03;;;;;;;69.50;14.87;;;13.90;91.30;;;;;;5068672;28;20697;-79
2022/04/14 00:09:30;;;;;;;165.50;19.67;;;;;;;;;;5064477;28;20486;-76
2022/04/14 00:11:57;;;;;;;55.70;10.77;;;;;;;;;;5068072;28;20987;-79
2022/04/14 00:14:24;;;;;;;101.40;16.80;;;;;;;;;;5066395;28;20493;-80
2022/04/14 00:16:51;;;;;;;123.80;15.90;;;;;;;;;;5067628;28;21075;-79
2022/04/14 00:19:18;;;;;;;207.43;25.80;;;;;;;;;;5065890;28;20985;-80
2022/04/14 00:21:46;;;;;;;48.83;9.87;;;14.00;90.90;;;;;;5067920;28;20645;-79
2022/04/14 00:24:13;;;;;;;168.40;18.67;;;;;;;;;;5068147;28;20487;-79
2022/04/14 00:26:40;;;;;;;75.13;12.73;;;14.10;90.60;;;;;;5067642;28;21010;-79
2022/04/14 00:29:07;;;;;;;141.93;17.20;;;;;;;;;;5068166;28;21310;-78
2022/04/14 00:31:34;;;;;;;66.40;13.17;;;14.20;90.60;;;;;;5065290;28;20551;-78
2022/04/14 00:34:00;;;;;;;26.43;11.60;;;14.20;90.80;;;;;;5060297;28;20485;-78
2022/04/14 00:36:28;;;;;;;21.87;13.13;;;14.20;90.90;;;;;;5066429;28;20484;-77
2022/04/14 00:38:56;;;;;;;18.47;10.80;;;14.20;91.00;;;;;;5068806;28;20480;-78
2022/04/14 00:41:23;;;;;;;133.87;17.20;;;;;;;;;;5066368;28;20477;-80
2022/04/14 00:43:52;;;;;;;58.97;15.90;;;14.20;91.80;;;;;;5065341;28;21202;-78
2022/04/14 00:46:19;;;;;;;111.30;23.70;;;14.10;92.50;;;;;;5067462;28;20503;-79
2022/04/14 00:48:47;;;;;;;37.27;13.47;;;18.40;94.20;;;;;;5068035;28;20999;-78
2022/04/14 00:51:14;;;;;;;64.40;16.20;;;10.60;90.60;;;;;;5064683;28;20475;-78
2022/04/14 00:53:40;;;;;;;42.63;10.67;;;14.10;91.00;;;;;;5067745;28;20909;-78
2022/04/14 00:56:08;;;;;;;79.23;16.80;;;14.00;90.90;;;;;;5067186;28;20834;-78
2022/04/14 00:58:35;;;;;;;46.10;11.53;;;14.00;91.20;;;;;;5068340;28;20480;-78
2022/04/14 01:01:05;;;;;;;42.23;10.90;;;13.80;91.90;;;;;;5051764;28;21107;-77
2022/04/14 01:03:32;;;;;;;61.53;15.57;;;13.60;92.60;;;;;;5043266;28;20490;-77
2022/04/14 01:06:00;;;;;;;86.67;16.60;;;9.10;91.60;;;;;;5022230;28;20843;-79
2022/04/14 01:08:27;;;;;;;53.50;15.63;;;13.50;93.40;;;;;;5042897;28;20477;-76
2022/04/14 01:10:55;;;;;;;52.43;15.70;;;13.30;93.80;;;;;;5028100;28;20582;-77
2022/04/14 01:13:23;;;;;;;84.77;21.20;;;13.30;94.30;;;;;;5036498;28;20479;-77
2022/04/14 01:15:50;;;;;;;65.43;18.57;;;10.00;93.00;;;;;;5039861;28;20481;-76
2022/04/14 01:18:17;;;;;;;82.37;20.00;;;13.50;94.40;;;;;;5047204;28;20476;-78
2022/04/14 01:20:44;;;;;;;79.40;20.67;;;;;;;;;;5043867;28;20487;-77
2022/04/14 01:23:14;;;;;;;122.53;22.80;;;13.70;93.70;;;;;;5064310;28;20831;-77
2022/04/14 01:25:42;;;;;;;44.30;10.53;;;13.80;93.10;;;;;;5059449;28;21018;-78
2022/04/14 01:28:08;;;;;;;26.03;8.60;;;13.80;93.40;;;;;;5060010;28;20502;-77
2022/04/14 01:30:36;;;;;;;41.80;12.13;;;13.90;92.80;;;;;;5055546;28;20995;-77
2022/04/14 01:33:04;;;;;;;43.93;12.93;;;;;;;;;;5057671;28;20504;-77
2022/04/14 01:35:31;;;;;;;49.10;13.63;;;13.80;93.50;;;;;;5058449;28;20477;-78
2022/04/14 01:37:58;;;;;;;34.17;11.60;;;;;;;;;;5053281;28;20483;-79
2022/04/14 01:40:24;;;;;;;49.20;15.03;;;13.60;94.60;;;;;;5055428;28;20534;-77
2022/04/14 01:42:54;;;;;;;29.67;12.60;;;13.60;94.80;;;;;;5056987;28;20468;-77
2022/04/14 01:45:20;;;;;;;64.93;20.23;;;13.60;95.10;;;;;;5048911;28;20750;-77
2022/04/14 01:47:48;;;;;;;24.37;11.40;;;13.70;94.20;;;;;;5060208;28;20849;-78
2022/04/14 01:50:16;;;;;;;140.97;21.93;;;;;;;;;;5046407;28;20475;-77
2022/04/14 01:52:45;;;;;;;38.83;12.43;;;14.00;94.50;;;;;;5068414;28;20543;-76
2022/04/14 01:55:12;;;;;;;99.27;22.13;;;13.70;94.90;;;;;;5060674;28;20477;-76
2022/04/14 01:57:39;;;;;;;61.27;18.17;;;13.70;95.30;;;;;;5057508;28;20485;-77
2022/04/14 02:00:10;;;;;;;78.37;17.93;;;13.70;94.80;;;;;;5045525;28;20482;-79
2022/04/14 02:02:37;;;;;;;35.93;12.23;;;;;;;;;;5057853;28;20486;-76
2022/04/14 02:05:05;;;;;;;46.60;13.67;;;11.30;93.30;;;;;;5054053;28;20497;-76
2022/04/14 02:07:34;;;;;;;64.87;18.40;;;13.70;95.40;;;;;;5049962;28;20484;-76
2022/04/14 02:10:03;;;;;;;31.83;21.27;;;13.80;95.70;;;;;;5067710;28;20486;-77
2022/04/14 02:12:31;;;;;;;21.23;13.40;;;13.80;96.10;;;;;;5050656;28;20477;-76
2022/04/14 02:14:57;;;;;;;9.50;7.90;;;13.90;95.50;;;;;;5067348;28;20479;-76
2022/04/14 02:17:27;;;;;;;67.23;13.23;;;;;;;;;;5059353;28;21007;-78
2022/04/14 02:19:54;;;;;;;10.90;7.80;;;13.90;93.90;;;;;;5063770;28;20471;-77
2022/04/14 02:22:21;;;;;;;23.57;14.87;;;14.00;94.10;;;;;;5071462;28;20472;-78
2022/04/14 02:24:48;;;;;;;16.43;11.13;;;13.90;94.50;;;;;;5078563;28;21421;-78
2022/04/14 02:27:14;;;;;;;22.87;17.20;;;13.90;94.30;;;;;;5080662;28;20981;-79
2022/04/14 02:29:43;;;;;;;33.10;20.23;;;13.90;94.90;;;;;;5076209;28;20496;-76
2022/04/14 02:32:11;;;;;;;49.77;30.03;;;13.90;95.40;;;;;;5076614;28;20555;-76
2022/04/14 02:34:39;;;;;;;51.07;32.77;;;14.00;96.40;;;;;;5079511;28;21003;-76
2022/04/14 02:37:06;;;;;;;31.83;16.13;;;13.90;96.60;;;;;;5082417;28;20499;-77
2022/04/14 02:39:32;;;;;;;88.77;16.90;;;13.90;94.70;;;;;;5081291;28;20593;-78
2022/04/14 02:41:59;;;;;;;17.03;9.60;;;13.90;95.00;;;;;;5077544;28;20484;-77
2022/04/14 02:44:26;;;;;;;34.70;11.80;;;14.00;94.00;;;;;;5078633;28;20472;-77
2022/04/14 02:46:53;;;;;;;17.87;11.33;;;14.00;94.30;;;;;;5079123;28;20476;-77
2022/04/14 02:49:21;;;;;;;30.17;18.57;;;14.00;94.60;;;;;;5072462;28;20764;-77
2022/04/14 02:51:49;;;;;;;26.57;17.13;;;14.00;94.60;;;;;;5075943;28;20484;-76
2022/04/14 02:54:16;;;;;;;150.13;27.17;;;;;;;;;;5075668;28;20491;-78
2022/04/14 02:56:42;;;;;;;31.53;16.93;;;14.10;94.60;;;;;;5072778;28;20478;-78
2022/04/14 02:59:09;;;;;;;27.20;18.20;;;14.10;94.90;;;;;;5068045;28;20990;-77
2022/04/14 03:01:36;;;;;;;44.27;22.23;;;14.10;95.00;;;;;;5070760;28;20483;-77
2022/04/14 03:04:03;;;;;;;40.50;23.53;;;14.10;94.90;;;;;;5074485;28;21015;-76
2022/04/14 03:06:30;;;;;;;37.23;20.13;;;14.10;95.20;;;;;;5075803;28;20492;-76
2022/04/14 03:08:59;;;;;;;44.33;19.70;;;14.10;95.20;;;;;;5078675;28;20483;-76
2022/04/14 03:11:26;;;;;;;56.60;27.23;;;14.20;94.60;;;;;;5074444;28;20473;-77
2022/04/14 03:13:53;;;;;;;49.97;29.03;;;;;;;;;;5074699;28;20485;-78
2022/04/14 03:16:20;;;;;;;67.73;27.00;;;14.20;95.00;;;;;;5074968;28;20496;-77
2022/04/14 03:18:47;;;;;;;42.47;18.13;;;14.20;94.80;;;;;;5077013;28;20474;-77
2022/04/14 03:21:14;;;;;;;147.87;27.53;;;;;;;;;;5078178;28;21207;-77
2022/04/14 03:23:40;;;;;;;39.83;27.90;;;14.30;94.80;;;;;;5081467;28;20481;-76
2022/04/14 03:26:09;;;;;;;46.13;29.17;;;14.20;95.70;;;;;;5075256;28;20870;-79
2022/04/14 03:28:37;;;;;;;64.50;34.10;;;14.00;96.60;;;;;;5078788;28;20487;-79
2022/04/14 03:31:05;;;;;;;52.30;26.47;;;13.90;97.20;;;;;;5082005;28;20481;-78
2022/04/14 03:33:31;;;;;;;19.23;14.67;;;14.00;97.10;;;;;;5056332;28;20502;-77
2022/04/14 03:35:59;;;;;;;21.13;13.40;;;14.00;96.10;;;;;;5066959;28;20471;-78
2022/04/14 03:38:27;;;;;;;62.07;15.10;;;;;;;;;;5077924;28;20562;-77
2022/04/14 03:40:54;;;;;;;39.37;13.27;;;;;;;;;;5076520;28;20473;-77
2022/04/14 03:43:22;;;;;;;79.00;20.53;;;14.20;94.50;;;;;;5077733;28;20484;-79
2022/04/14 03:45:49;;;;;;;29.27;17.23;;;14.20;94.60;;;;;;5067665;28;20988;-78
2022/04/14 03:48:16;;;;;;;38.53;23.23;;;14.20;94.80;;;;;;5081840;28;20484;-78
2022/04/14 03:50:42;;;;;;;41.73;26.20;;;14.20;94.80;;;;;;5080320;28;20476;-79
2022/04/14 03:53:09;;;;;;;61.37;31.13;;;14.30;95.10;;;;;;5079151;28;20490;-77
2022/04/14 03:55:37;;;;;;;66.07;28.60;;;;;;;;;;5074996;28;20484;-77
2022/04/14 03:58:04;;;;;;;55.83;33.37;;;;;;;;;;5066544;28;20480;-78
2022/04/14 04:00:32;;;;;;;67.17;33.97;;;14.20;96.10;;;;;;5078956;28;20799;-79
2022/04/14 04:02:58;;;;;;;65.27;33.07;;;14.20;96.30;;;;;;5082487;27;20516;-77
2022/04/14 04:05:26;;;;;;;97.10;36.70;;;;;;;;;;5073866;28;20820;-76
2022/04/14 04:07:53;;;;;;;67.13;25.77;;;;;;;;;;5066865;28;20484;-78
2022/04/14 04:10:20;;;;;;;123.97;34.00;;;;;;;;;;5074338;28;20475;-78
2022/04/14 04:12:47;;;;;;;58.93;25.70;;;;;;;;;;5081039;28;20515;-79
2022/04/14 04:15:14;;;;;;;162.83;43.10;;;;;;;;;;5081265;28;20476;-78
2022/04/14 04:17:43;;;;;;;88.80;35.80;;;14.20;96.60;;;;;;5076708;28;20472;-78
2022/04/14 04:20:10;;;;;;;195.20;40.80;;;;;;;;;;5074681;28;20467;-77
2022/04/14 04:22:37;;;;;;;66.13;28.93;;;;;;;;;;5075245;28;20482;-78
2022/04/14 04:25:05;;;;;;;51.87;24.83;;;14.30;95.70;;;;;;5074682;28;20539;-77
2022/04/14 04:27:32;;;;;;;56.10;27.40;;;14.30;95.90;;;;;;5060795;28;20465;-78
2022/04/14 04:29:58;;;;;;;61.27;27.77;;;14.40;95.40;;;;;;5058569;28;20480;-79
2022/04/14 04:32:25;;;;;;;58.17;24.93;;;;;;;;;;5060350;28;20809;-78
2022/04/14 04:34:54;;;;;;;64.27;25.53;;;;;;;;;;5056846;28;20490;-76
2022/04/14 04:37:21;;;;;;;132.97;35.67;;;;;;;;;;5055547;28;20495;-78
2022/04/14 04:39:48;;;;;;;73.43;30.80;;;;;;;;;;5055524;28;20497;-79
2022/04/14 04:42:15;;;;;;;110.80;39.67;;;14.40;95.60;;;;;;5063724;28;20476;-78
2022/04/14 04:44:41;;;;;;;45.43;24.63;;;14.40;95.90;;;;;;5063409;28;20499;-77
2022/04/14 04:47:08;;;;;;;53.97;20.97;;;14.40;95.90;;;;;;5057366;28;20482;-77
2022/04/14 04:49:35;;;;;;;71.73;27.50;;;14.50;95.50;;;;;;5059619;28;20480;-77
2022/04/14 04:52:04;;;;;;;62.43;28.57;;;14.30;96.20;;;;;;5055170;28;20490;-80
2022/04/14 04:54:30;;;;;;;72.13;31.47;;;14.30;96.40;;;;;;5056284;28;20685;-79
2022/04/14 04:56:58;;;;;;;62.70;32.10;;;14.30;97.00;;;;;;5048908;28;20485;-80
2022/04/14 04:59:25;;;;;;;66.07;28.10;;;14.30;96.70;;;;;;5057552;28;20508;-79
2022/04/14 05:01:52;;;;;;;36.53;23.60;;;;;;;;;;5059190;28;20482;-78
2022/04/14 05:04:19;;;;;;;78.37;26.40;;;14.30;95.90;;;;;;5060264;28;20537;-79
2022/04/14 05:06:46;;;;;;;42.10;24.73;;;14.30;96.20;;;;;;5061719;28;20470;-79
2022/04/14 05:09:16;;;;;;;125.10;32.53;;;14.30;95.80;;;;;;5059720;28;20563;-78
2022/04/14 05:11:43;;;;;;;44.50;24.80;;;14.40;95.70;;;;;;5061309;28;20493;-78
2022/04/14 05:14:10;;;;;;;110.03;35.43;;;14.40;95.60;;;;;;5060345;28;20488;-75
2022/04/14 05:16:37;;;;;;;64.37;31.43;;;14.50;95.80;;;;;;5062160;28;20893;-79
2022/04/14 05:19:05;;;;;;;53.37;25.33;;;14.50;96.00;;;;;;5061836;28;20520;-79
2022/04/14 05:21:32;;;;;;;40.27;24.73;;;14.50;96.00;;;;;;5058043;28;21089;-78
2022/04/14 05:23:59;;;;;;;40.87;22.90;;;14.50;96.20;;;;;;5060217;28;20990;-77
2022/04/14 05:26:27;;;;;;;50.77;26.50;;;14.50;96.10;;;;;;5058587;28;20504;-77
2022/04/14 05:28:53;;;;;;;68.10;31.33;;;14.60;96.30;;;;;;5061674;28;20485;-78
2022/04/14 05:31:21;;;;;;;80.53;35.70;;;14.50;96.20;;;;;;5059873;28;20489;-78
2022/04/14 05:33:48;;;;;;;58.27;28.60;;;14.50;96.50;;;;;;5058584;28;20518;-78
2022/04/14 05:36:15;;;;;;;108.67;38.13;;;14.60;96.30;;;;;;5054139;28;20502;-77
2022/04/14 05:38:42;;;;;;;60.73;30.13;;;14.60;96.60;;;;;;5051041;28;20485;-77
2022/04/14 05:41:09;;;;;;;64.93;33.97;;;;;;;;;;5060655;28;20880;-78
2022/04/14 05:43:38;;;;;;;87.50;36.90;;;14.60;97.20;;;;;;5038846;28;20463;-76
2022/04/14 05:46:05;;;;;;;78.73;31.57;;;;;;;;;;5055387;28;20478;-78
2022/04/14 05:48:32;;;;;;;64.73;24.30;;;;;;;;;;5059128;28;20597;-78
2022/04/14 05:50:59;;;;;;;50.70;24.90;;;14.70;96.70;;;;;;5058645;28;20838;-78
2022/04/14 05:53:27;;;;;;;64.00;27.17;;;;;;;;;;5053388;28;20472;-78
2022/04/14 05:55:54;;;;;;;48.40;22.70;;;;;;;;;;5055953;28;20486;-79
2022/04/14 05:58:21;;;;;;;73.90;24.00;;;14.90;96.10;;;;;;5059185;28;20478;-78
2022/04/14 06:00:50;;;;;;;50.77;23.43;;;14.80;96.30;;;;;;5057882;28;20485;-76
2022/04/14 06:03:17;;;;;;;121.60;35.30;;;;;;;;;;5048370;28;20734;-79
2022/04/14 06:05:45;;;;;;;66.47;30.47;;;14.70;97.20;;;;;;5049462;28;20492;-78
2022/04/14 06:08:12;;;;;;;153.80;37.13;;;;;;;;;;5050597;28;20839;-77
2022/04/14 06:10:39;;;;;;;130.43;39.10;;;;;;;;;;5053698;28;20492;-78
2022/04/14 06:13:06;;;;;;;39.40;27.07;;;15.00;96.60;;;;;;5060670;28;20481;-78
2022/04/14 06:15:33;;;;;;;39.73;22.80;;;15.00;96.90;;;;;;5059739;28;20539;-78
2022/04/14 06:18:01;;;;;;;37.47;23.20;;;15.10;96.70;;;;;;5060657;28;20507;-78
2022/04/14 06:20:27;;;;;;;31.97;22.50;;;15.20;96.60;;;;;;5057353;28;20485;-78
2022/04/14 06:22:55;;;;;;;31.80;23.93;;;15.30;96.50;;;;;;5059300;28;20520;-79
2022/04/14 06:25:23;;;;;;;90.77;56.93;;;15.30;97.00;;;;;;5058952;28;20637;-79
2022/04/14 06:27:51;;;;;;;55.47;37.10;;;15.30;96.80;;;;;;5059739;28;20486;-78
2022/04/14 06:30:19;;;;;;;147.00;40.83;;;15.60;96.60;;;;;;5041089;28;20543;-79
2022/04/14 06:32:55;;;;;;;63.37;28.00;;;15.60;96.50;;;;;;5062048;28;20531;-79
2022/04/14 06:35:23;;;;;;;84.33;24.27;;;15.70;96.80;;;;;;5055825;28;20550;-79
2022/04/14 06:37:50;;;;;;;43.33;22.60;;;15.80;96.70;;;;;;5061336;28;20853;-79
2022/04/14 06:40:17;;;;;;;83.73;27.43;;;15.90;97.10;;;;;;5059095;28;20535;-80
2022/04/14 06:42:44;;;;;;;64.07;31.23;;;15.90;97.20;;;;;;5060076;28;20489;-81
2022/04/14 06:45:11;;;;;;;115.43;40.50;;;16.00;97.70;;;;;;5058740;28;20463;-83
2022/04/14 06:47:37;;;;;;;74.67;34.80;;;16.00;98.20;;;;;;5060807;28;21059;-83
2022/04/14 06:50:06;;;;;;;75.10;34.07;;;16.30;97.30;;;;;;5059638;28;20493;-81
2022/04/14 06:52:37;;;;;;;61.63;30.83;;;16.30;97.40;;;;;;5061048;28;20989;-81
2022/04/14 06:55:05;;;;;;;59.63;28.40;;;16.80;97.20;;;;;;5060832;28;20486;-79
2022/04/14 06:57:33;;;;;;;56.70;27.97;;;17.00;96.50;;;;;;5061310;28;20541;-81
2022/04/14 06:59:59;;;;;;;53.73;25.73;;;17.70;95.10;;;;;;5061854;28;20485;-78
2022/04/14 07:02:26;;;;;;;43.67;23.83;;;17.90;94.30;;;;;;5060389;28;20751;-80
2022/04/14 07:04:53;;;;;;;48.97;25.00;;;18.00;94.50;;;;;;5057532;28;20574;-79
2022/04/14 07:07:20;;;;;;;91.30;30.60;;;;;;;;;;5057140;28;20478;-78
2022/04/14 07:09:49;;;;;;;39.27;23.70;;;18.30;93.10;;;;;;5059570;28;20490;-77
2022/04/14 07:12:17;;;;;;;42.97;27.93;;;18.50;93.60;;;;;;5063328;28;20467;-78
2022/04/14 07:14:44;;;;;;;32.57;22.23;;;18.50;92.90;;;;;;5063446;28;20502;-79
2022/04/14 07:17:11;;;;;;;39.40;22.20;;;18.60;92.60;;;;;;5064536;28;21129;-81
2022/04/14 07:19:37;;;;;;;31.50;23.83;;;18.70;92.70;;;;;;5063982;28;20551;-82
2022/04/14 07:22:05;;;;;;;49.57;24.77;;;18.90;93.00;;;;;;5063520;28;20743;-77
2022/04/14 07:24:32;;;;;;;67.40;29.57;;;19.20;92.70;;;;;;5062451;28;20474;-79
2022/04/14 07:27:02;;;;;;;41.53;23.90;;;19.50;92.30;;;;;;5063417;28;20885;-81
2022/04/14 07:29:29;;;;;;;71.90;30.53;;;19.70;92.10;;;;;;5061390;28;20499;-76
2022/04/14 07:31:55;;;;;;;32.50;22.77;;;19.80;91.30;;;;;;5062414;28;20554;-78
2022/04/14 07:34:23;;;;;;;50.40;25.03;;;20.00;91.60;;;;;;5063265;28;20486;-79
2022/04/14 07:36:50;;;;;;;45.70;24.73;;;19.90;90.90;;;;;;5062593;28;20475;-79
2022/04/14 07:39:17;;;;;;;91.63;31.97;;;19.90;90.70;;;;;;5057574;28;20475;-77
2022/04/14 07:41:44;;;;;;;55.73;26.63;;;20.00;90.80;;;;;;5063701;28;20475;-79
2022/04/14 07:44:15;;;;;;;81.27;32.50;;;20.10;90.70;;;;;;5062031;28;21198;-77
2022/04/14 07:46:44;;;;;;;46.00;24.37;;;20.10;91.10;;;;;;5056296;28;20463;-79
2022/04/14 07:49:12;;;;;;;77.93;31.13;;;20.10;90.60;;;;;;5067443;28;20532;-76
2022/04/14 07:51:40;;;;;;;49.27;23.37;;;20.10;90.20;;;;;;5058609;28;20479;-79
2022/04/14 07:54:07;;;;;;;76.07;27.70;;;20.00;89.50;;;;;;5057328;28;20844;-78
2022/04/14 07:56:34;;;;;;;48.17;24.27;;;19.90;90.10;;;;;;5048180;28;20473;-78
2022/04/14 07:59:01;;;;;;;47.23;23.73;;;19.90;89.50;;;;;;5059615;28;20486;-77
2022/04/14 08:01:29;;;;;;;56.30;25.43;;;19.90;90.00;;;;;;5062456;28;20490;-79
2022/04/14 08:03:56;;;;;;;46.13;23.00;;;;;;;;;;5061417;28;20483;-78
2022/04/14 08:06:25;;;;;;;59.50;24.90;;;19.90;89.40;;;;;;5058135;28;20487;-77
2022/04/14 08:08:53;;;;;;;41.93;22.23;;;19.90;90.10;;;;;;5059455;28;20474;-78
2022/04/14 08:11:20;;;;;;;96.80;28.43;;;;;;;;;;5048279;28;20581;-78
2022/04/14 08:13:46;;;;;;;34.37;19.80;;;20.00;90.00;;;;;;5059437;28;20960;-79
2022/04/14 08:16:13;;;;;;;66.97;22.87;;;20.00;90.10;;;;;;5059783;28;20482;-79
2022/04/14 08:18:41;;;;;;;41.33;19.30;;;20.00;89.60;;;;;;5062973;28;20490;-79
2022/04/14 08:21:08;;;;;;;109.53;25.47;;;20.10;90.40;;;;;;5061343;28;20517;-79
2022/04/14 08:23:39;;;;;;;59.87;24.27;;;;;;;;;;5059808;28;20483;-78
2022/04/14 08:26:06;;;;;;;45.10;21.10;;;20.50;90.40;;;;;;5057025;28;20475;-78
2022/04/14 08:28:33;;;;;;;60.20;25.13;;;20.90;90.10;;;;;;5060805;28;20478;-77
2022/04/14 08:31:00;;;;;;;47.00;21.70;;;21.00;89.40;;;;;;5060190;28;20559;-78
2022/04/14 08:33:27;;;;;;;34.23;20.50;;;21.30;89.30;;;;;;5060536;28;20484;-79
2022/04/14 08:35:56;;;;;;;27.10;18.53;;;21.70;88.50;;;;;;5060297;28;20488;-78
2022/04/14 08:38:23;;;;;;;33.47;21.47;;;21.80;90.20;;;;;;5057326;28;20493;-77
2022/04/14 08:40:58;;;;;;;28.40;19.17;;;21.90;85.80;;;;;;5056824;28;21056;-76
2022/04/14 08:43:32;;;;;;;46.53;25.23;;;22.00;86.20;;;;;;5054813;28;20483;-77
2022/04/14 08:46:00;;;;;;;23.37;17.83;;;22.00;86.60;;;;;;5062024;28;20510;-76
2022/04/14 08:48:28;;;;;;;35.97;20.97;;;22.10;86.40;;;;;;5051941;28;21007;-80
2022/04/14 08:50:57;;;;;;;25.83;16.77;;;22.10;84.40;;;;;;5056324;28;20492;-77
2022/04/14 08:53:26;;;;;;;34.17;21.60;;;22.00;85.60;;;;;;5061087;28;21035;-77
2022/04/14 08:55:56;;;;;;;38.70;18.90;;;;;;;;;;5061647;28;20503;-76
2022/04/14 08:58:26;;;;;;;37.80;22.37;;;21.90;84.50;;;;;;5061611;28;20865;-77
2022/04/14 09:00:55;;;;;;;26.10;17.27;;;22.00;85.60;;;;;;5060743;28;20854;-80
2022/04/14 09:03:25;;;;;;;41.90;21.57;;;21.90;82.80;;;;;;5059598;28;20512;-80
2022/04/14 09:05:55;;;;;;;25.30;17.47;;;21.90;83.50;;;;;;5061480;28;20982;-78
2022/04/14 09:08:23;;;;;;;34.47;20.90;;;21.90;86.00;;;;;;5062052;28;20563;-78
2022/04/14 09:10:50;;;;;;;20.27;16.50;;;22.00;84.90;;;;;;5064325;28;21015;-77
2022/04/14 09:13:17;;;;;;;34.43;22.00;;;22.10;85.60;;;;;;5059148;28;20481;-80
2022/04/14 09:15:44;;;;;;;32.47;19.80;;;22.20;85.60;;;;;;5061553;28;20485;-84
2022/04/14 09:18:11;;;;;;;46.27;23.10;;;22.40;85.20;;;;;;5062674;28;20490;-78
2022/04/14 09:20:41;;;;;;;37.80;20.17;;;22.40;85.30;;;;;;5058274;28;20489;-80
2022/04/14 09:23:20;;;;;;;34.70;21.50;;;22.40;85.60;;;;;;5057007;28;20515;-78
2022/04/14 09:25:50;;;;;;;25.93;18.07;;;22.40;84.20;;;;;;5068922;28;20553;-81
2022/04/14 09:28:19;;;;;;;24.83;18.93;;;22.40;84.80;;;;;;5059553;28;20469;-78
2022/04/14 09:31:04;;;;;;;32.53;19.70;;;22.30;83.10;;;;;;5060855;28;20454;-79
2022/04/14 09:33:32;;;;;;;35.00;21.80;;;22.30;85.20;;;;;;5069280;28;20565;-78
2022/04/14 09:36:10;;;;;;;27.73;18.47;;;22.60;84.00;;;;;;5071360;28;20496;-83
2022/04/14 09:38:49;;;;;;;32.10;21.13;;;;;;;;;;5067499;28;21553;-78
2022/04/14 09:41:29;;;;;;;30.00;19.07;;;22.50;83.30;;;;;;5069490;28;21121;-77
2022/04/14 09:43:57;;;;;;;32.53;19.30;;;22.50;83.90;;;;;;5059522;28;20482;-76
2022/04/14 09:46:24;;;;;;;32.40;19.60;;;;;;;;;;5069058;28;20480;-78
2022/04/14 09:49:07;;;;;;;28.77;19.97;;;22.50;83.30;;;;;;5078967;28;20473;-79
2022/04/14 09:51:35;;;;;;;31.67;20.57;;;22.40;82.70;;;;;;5073189;28;20484;-81
2022/04/14 09:54:12;;;;;;;31.20;18.00;;;22.40;84.20;;;;;;5078700;28;20485;-79
2022/04/14 09:56:49;;;;;;;29.93;17.70;;;22.40;83.40;;;;;;5065592;28;20889;-77
2022/04/14 09:59:17;;;;;;;52.67;20.30;;;22.40;82.40;;;;;;5077040;28;20487;-79
2022/04/14 10:01:46;;;;;;;48.00;19.90;;;22.40;83.10;;;;;;5073540;28;20477;-77
2022/04/14 10:04:30;;;;;;;28.13;17.43;;;22.40;83.70;;;;;;5069170;28;20590;-79
2022/04/14 10:07:21;;;;;;;20.10;15.63;;;22.50;82.70;;;;;;5073139;28;20901;-79
2022/04/14 10:09:49;;;;;;;21.43;14.53;;;22.50;82.30;;;;;;5060921;28;20489;-78
2022/04/14 10:12:30;;;;;;;40.63;18.83;;;22.60;83.00;;;;;;5075899;28;20538;-80
2022/04/14 10:15:07;;;;;;;20.23;14.50;;;22.60;83.10;;;;;;5070218;28;20981;-82
2022/04/14 10:17:38;;;;;;;21.10;13.90;;;22.70;81.20;;;;;;5072023;28;20537;-81
2022/04/14 10:20:07;;;;;;;19.57;14.10;;;22.70;83.30;;;;;;5070938;28;20981;-79
2022/04/14 10:22:35;;;;;;;38.53;15.40;;;22.70;80.70;;;;;;5072629;28;20495;-80
2022/04/14 10:25:03;;;;;;;30.07;15.33;;;22.50;82.10;;;;;;5079816;28;20542;-80
2022/04/14 10:27:33;;;;;;;19.37;13.00;;;22.50;82.70;;;;;;5078924;28;20809;-80
2022/04/14 10:30:00;;;;;;;23.67;15.10;;;22.70;82.20;;;;;;5065196;28;21048;-79
2022/04/14 10:32:27;;;;;;;34.77;15.37;;;22.70;82.20;;;;;;5076632;28;20556;-76
2022/04/14 10:34:56;;;;;;;23.37;14.90;;;22.80;82.20;;;;;;5063782;28;20485;-82
2022/04/14 10:37:29;;;;;;;22.33;16.60;;;22.80;82.20;;;;;;5059531;28;20984;-77
2022/04/14 10:39:56;;;;;;;23.27;14.43;;;23.10;80.50;;;;;;5054599;28;20508;-79
2022/04/14 10:42:27;;;;;;;91.97;19.67;;;23.10;80.40;;;;;;5070951;28;20995;-81
2022/04/14 10:44:56;;;;;;;19.80;15.50;;;23.20;81.10;;;;;;5059579;28;20471;-80
2022/04/14 10:47:52;;;;;;;24.87;16.00;;;23.40;81.00;;;;;;5067209;28;20884;-77
2022/04/14 10:50:24;;;;;;;23.90;17.20;;;23.40;80.60;;;;;;5066770;28;20473;-78
2022/04/14 10:53:05;;;;;;;21.37;13.87;;;23.50;81.60;;;;;;5060468;28;20493;-80
2022/04/14 10:55:50;;;;;;;19.67;16.00;;;23.80;81.50;;;;;;5076477;28;20511;-80
2022/04/14 10:58:54;;;;;;;41.63;20.30;;;24.20;80.50;;;;;;5077563;28;20480;-82
2022/04/14 11:01:54;;;;;;;55.87;19.40;;;24.40;79.80;;;;;;5076237;28;20674;-82
2022/04/14 11:04:27;;;;;;;50.63;19.30;;;24.40;81.10;;;;;;5081584;28;20876;-77
2022/04/14 11:06:57;;;;;;;80.10;15.87;;;;;;;;;;5077750;28;20527;-78
2022/04/14 11:09:49;;;;;;;119.03;21.63;;;24.80;77.20;;;;;;5064624;28;20489;-76
2022/04/14 11:12:19;;;;;;;98.20;21.03;;;24.90;79.40;;;;;;5071961;28;20480;-79
2022/04/14 11:14:49;;;;;;;28.00;11.30;;;25.00;79.70;;;;;;5076280;28;20494;-76
2022/04/14 11:18:00;;;;;;;87.37;19.10;;;25.10;76.70;;;;;;5074146;28;20841;-78
2022/04/14 11:20:54;;;;;;;42.07;12.90;;;25.20;75.60;;;;;;5063354;28;20471;-79
2022/04/14 11:23:28;;;;;;;52.27;14.20;;;25.30;79.20;;;;;;5075609;28;20484;-82
2022/04/14 11:26:03;;;;;;;54.53;14.60;;;;;;;;;;5067023;28;20477;-78
2022/04/14 11:28:33;;;;;;;47.83;13.47;;;25.50;78.50;;;;;;5090438;28;20469;-79
2022/04/14 11:31:02;;;;;;;46.57;13.20;;;25.30;75.80;;;;;;5085183;28;20550;-78
2022/04/14 11:33:37;;;;;;;47.23;13.70;;;25.10;75.60;;;;;;5077289;28;20494;-79
2022/04/14 11:36:10;;;;;;;35.97;12.30;;;25.10;76.20;;;;;;5078072;28;20493;-78
2022/04/14 11:38:55;;;;;;;56.13;15.40;;;24.70;75.50;;;;;;5075002;28;20565;-77
2022/04/14 11:41:38;;;;;;;64.60;15.67;;;24.30;76.50;;;;;;5077702;28;20527;-78
2022/04/14 11:44:07;;;;;;;57.23;14.77;;;;;;;;;;5057766;28;20538;-77
2022/04/14 11:46:34;;;;;;;38.70;12.10;;;24.10;76.60;;;;;;5073169;28;20481;-77
2022/04/14 11:49:02;;;;;;;62.53;13.77;;;;;;;;;;5081706;28;20569;-77
2022/04/14 11:51:31;;;;;;;51.40;13.97;;;24.00;77.80;;;;;;5074220;28;20493;-75
2022/04/14 11:53:58;;;;;;;50.33;13.63;;;;;;;;;;5082547;28;20477;-76
2022/04/14 11:56:25;;;;;;;52.93;14.63;;;24.00;77.90;;;;;;5068582;27;20489;-78
2022/04/14 11:58:53;;;;;;;55.53;15.47;;;;;;;;;;5078121;28;20494;-78
2022/04/14 12:01:20;;;;;;;97.93;20.50;;;;;;;;;;5070074;28;20548;-78
2022/04/14 12:03:47;;;;;;;29.50;12.70;;;24.00;78.00;;;;;;5079548;28;20827;-77
2022/04/14 12:06:16;;;;;;;77.73;18.40;;;24.00;77.50;;;;;;5075787;28;20456;-79
2022/04/14 12:08:53;;;;;;;44.57;14.47;;;24.10;78.90;;;;;;5074160;28;20657;-78
2022/04/14 12:11:21;;;;;;;43.07;13.93;;;24.20;78.10;;;;;;5070293;28;20572;-77
2022/04/14 12:13:48;;;;;;;29.63;12.83;;;24.30;77.70;;;;;;5080341;28;20475;-78
2022/04/14 12:16:15;;;;;;;80.57;18.83;;;;;;;;;;5074509;28;20551;-79
2022/04/14 12:18:49;;;;;;;32.70;12.43;;;24.30;76.70;;;;;;5075276;28;20514;-81
2022/04/14 12:21:20;;;;;;;92.10;16.90;;;24.30;78.20;;;;;;5069440;28;20475;-81
2022/04/14 12:23:50;;;;;;;38.80;12.43;;;24.40;78.10;;;;;;5082189;28;20470;-78
2022/04/14 12:26:17;;;;;;;48.73;16.17;;;24.40;78.80;;;;;;5075894;28;20477;-80
2022/04/14 12:28:46;;;;;;;40.53;13.23;;;24.60;78.30;;;;;;5070339;28;20478;-82
2022/04/14 12:31:16;;;;;;;67.23;19.97;;;24.70;79.20;;;;;;5079551;28;20481;-79
2022/04/14 12:33:43;;;;;;;36.47;14.03;;;;;;;;;;5076782;28;20493;-77
2022/04/14 12:36:11;;;;;;;51.80;17.50;;;24.90;75.90;;;;;;5079421;28;20493;-80
2022/04/14 12:38:45;;;;;;;44.37;14.03;;;25.00;76.50;;;;;;5081055;28;20485;-79
2022/04/14 12:41:19;;;;;;;101.30;18.53;;;25.10;76.50;;;;;;5074815;28;20503;-78
2022/04/14 12:43:48;;;;;;;40.03;13.17;;;25.20;77.10;;;;;;5069213;28;20479;-75
2022/04/14 12:46:24;;;;;;;82.80;17.90;;;25.30;75.50;;;;;;5073740;28;20490;-78
2022/04/14 12:49:03;;;;;;;23.00;12.17;;;25.30;75.70;;;;;;5069632;28;20822;-77
2022/04/14 12:51:32;;;;;;;22.50;11.70;;;25.30;76.20;;;;;;5075932;28;20474;-79
2022/04/14 12:54:01;;;;;;;30.60;14.33;;;25.50;77.50;;;;;;5064430;28;20870;-79
2022/04/14 12:56:30;;;;;;;33.53;12.53;;;25.60;75.00;;;;;;5071727;28;20477;-77